Necedah, Wisconsin
Current Conditions -  °F | °C
As of 7:58 AM on Saturday 20 Dec 2014 (Local Time) from KVOK Reporting Station
Overcast Overcast  
Wind Chill: 21°   Ceiling: 4000
Heat Index: 27°   Visibility: 10mi
Dew Point: 27°   Wind: 5mph
Humidity: 100%   Direction: 130°SE
Pressure: 30.22"   Gusts: NA
Location:  44.03°N, 90.07°W
Report Text: KVOK 201358Z 13004KT 10SM BKN040 OVC080 M03/M03 A3022 RMK AO2A SLP251
Loading
Personal Weather Stations






























Interactive Weather Map New forecast layout! Learn more

10-Day Weather Forecast

Advertisements
Track Severe Weather on mobile